sensor_id;sensor_type;location;lat;lon;timestamp;P1;durP1;ratioP1;P2;durP2;ratioP2
18407;SDS011;9330;52.210;21.174;2024-03-22T00:01:15;34.22;;;24.42;;
18407;SDS011;9330;52.210;21.174;2024-03-22T00:03:43;35.10;;;25.10;;
18407;SDS011;9330;52.210;21.174;2024-03-22T00:06:10;36.83;;;25.85;;
18407;SDS011;9330;52.210;21.174;2024-03-22T00:08:37;36.08;;;25.90;;
18407;SDS011;9330;52.210;21.174;2024-03-22T00:11:03;37.47;;;26.10;;
18407;SDS011;9330;52.210;21.174;2024-03-22T00:13:30;36.30;;;25.77;;
18407;SDS011;9330;52.210;21.174;2024-03-22T00:15:55;34.80;;;25.75;;
18407;SDS011;9330;52.210;21.174;2024-03-22T00:18:22;35.05;;;25.48;;
18407;SDS011;9330;52.210;21.174;2024-03-22T00:20:50;35.97;;;26.17;;
18407;SDS011;9330;52.210;21.174;2024-03-22T00:23:17;35.67;;;25.58;;
18407;SDS011;9330;52.210;21.174;2024-03-22T00:25:42;40.90;;;27.48;;
18407;SDS011;9330;52.210;21.174;2024-03-22T00:28:09;37.05;;;26.23;;
18407;SDS011;9330;52.210;21.174;2024-03-22T00:30:35;35.10;;;26.33;;
18407;SDS011;9330;52.210;21.174;2024-03-22T00:33:02;33.65;;;25.30;;
18407;SDS011;9330;52.210;21.174;2024-03-22T00:35:28;36.47;;;27.38;;
18407;SDS011;9330;52.210;21.174;2024-03-22T00:37:57;37.38;;;27.38;;
18407;SDS011;9330;52.210;21.174;2024-03-22T00:40:22;35.97;;;26.88;;
18407;SDS011;9330;52.210;21.174;2024-03-22T00:42:49;35.15;;;26.15;;
18407;SDS011;9330;52.210;21.174;2024-03-22T00:45:15;33.05;;;24.80;;
18407;SDS011;9330;52.210;21.174;2024-03-22T00:47:42;37.80;;;27.25;;
18407;SDS011;9330;52.210;21.174;2024-03-22T00:50:08;38.33;;;26.98;;
18407;SDS011;9330;52.210;21.174;2024-03-22T00:52:36;36.72;;;27.45;;
18407;SDS011;9330;52.210;21.174;2024-03-22T00:55:03;35.35;;;25.92;;
18407;SDS011;9330;52.210;21.174;2024-03-22T00:57:30;36.40;;;26.73;;
18407;SDS011;9330;52.210;21.174;2024-03-22T00:59:56;40.70;;;28.05;;
18407;SDS011;9330;52.210;21.174;2024-03-22T01:02:23;36.63;;;27.35;;
18407;SDS011;9330;52.210;21.174;2024-03-22T01:04:49;36.15;;;26.65;;
18407;SDS011;9330;52.210;21.174;2024-03-22T01:07:16;35.53;;;26.77;;
18407;SDS011;9330;52.210;21.174;2024-03-22T01:09:42;36.55;;;28.52;;
18407;SDS011;9330;52.210;21.174;2024-03-22T01:12:11;41.55;;;28.88;;
18407;SDS011;9330;52.210;21.174;2024-03-22T01:14:37;38.20;;;29.05;;
18407;SDS011;9330;52.210;21.174;2024-03-22T01:17:04;38.42;;;27.40;;
18407;SDS011;9330;52.210;21.174;2024-03-22T01:19:30;36.00;;;27.25;;
18407;SDS011;9330;52.210;21.174;2024-03-22T01:21:57;39.58;;;28.77;;
18407;SDS011;9330;52.210;21.174;2024-03-22T01:24:23;38.00;;;28.50;;
18407;SDS011;9330;52.210;21.174;2024-03-22T01:26:49;37.33;;;29.45;;
18407;SDS011;9330;52.210;21.174;2024-03-22T01:29:17;38.17;;;28.95;;
18407;SDS011;9330;52.210;21.174;2024-03-22T01:31:44;39.22;;;29.17;;
18407;SDS011;9330;52.210;21.174;2024-03-22T01:34:10;37.95;;;29.70;;
18407;SDS011;9330;52.210;21.174;2024-03-22T01:36:36;40.25;;;29.38;;
18407;SDS011;9330;52.210;21.174;2024-03-22T01:39:02;39.78;;;29.90;;
18407;SDS011;9330;52.210;21.174;2024-03-22T01:41:29;43.53;;;30.40;;
18407;SDS011;9330;52.210;21.174;2024-03-22T01:43:56;41.67;;;30.48;;
18407;SDS011;9330;52.210;21.174;2024-03-22T01:46:25;40.08;;;29.90;;
18407;SDS011;9330;52.210;21.174;2024-03-22T01:48:51;41.42;;;30.83;;
18407;SDS011;9330;52.210;21.174;2024-03-22T01:51:18;41.17;;;31.23;;
18407;SDS011;9330;52.210;21.174;2024-03-22T01:53:44;39.13;;;29.88;;
18407;SDS011;9330;52.210;21.174;2024-03-22T01:56:11;40.42;;;30.60;;
18407;SDS011;9330;52.210;21.174;2024-03-22T01:58:37;39.83;;;30.15;;
18407;SDS011;9330;52.210;21.174;2024-03-22T02:01:04;38.13;;;30.48;;
18407;SDS011;9330;52.210;21.174;2024-03-22T02:03:31;38.17;;;30.33;;
18407;SDS011;9330;52.210;21.174;2024-03-22T02:05:58;40.55;;;31.48;;
18407;SDS011;9330;52.210;21.174;2024-03-22T02:08:24;40.65;;;31.73;;
18407;SDS011;9330;52.210;21.174;2024-03-22T02:10:51;41.30;;;31.40;;
18407;SDS011;9330;52.210;21.174;2024-03-22T02:13:17;40.65;;;31.30;;
18407;SDS011;9330;52.210;21.174;2024-03-22T02:15:44;41.38;;;31.90;;
18407;SDS011;9330;52.210;21.174;2024-03-22T02:18:10;38.03;;;29.75;;
18407;SDS011;9330;52.210;21.174;2024-03-22T02:20:39;37.58;;;29.05;;
18407;SDS011;9330;52.210;21.174;2024-03-22T02:23:04;45.45;;;33.05;;
18407;SDS011;9330;52.210;21.174;2024-03-22T02:25:33;45.25;;;34.15;;
18407;SDS011;9330;52.210;21.174;2024-03-22T02:27:59;56.67;;;37.83;;
18407;SDS011;9330;52.210;21.174;2024-03-22T02:30:26;51.08;;;36.63;;
18407;SDS011;9330;52.210;21.174;2024-03-22T02:32:51;46.92;;;33.55;;
18407;SDS011;9330;52.210;21.174;2024-03-22T02:35:18;56.08;;;39.67;;
18407;SDS011;9330;52.210;21.174;2024-03-22T02:37:44;55.17;;;38.88;;
18407;SDS011;9330;52.210;21.174;2024-03-22T02:40:12;53.22;;;38.88;;
18407;SDS011;9330;52.210;21.174;2024-03-22T02:42:39;62.80;;;42.58;;
18407;SDS011;9330;52.210;21.174;2024-03-22T02:45:06;57.20;;;39.88;;
18407;SDS011;9330;52.210;21.174;2024-03-22T02:47:33;58.67;;;39.85;;
18407;SDS011;9330;52.210;21.174;2024-03-22T02:50:00;60.20;;;41.28;;
18407;SDS011;9330;52.210;21.174;2024-03-22T02:52:26;60.92;;;39.97;;
18407;SDS011;9330;52.210;21.174;2024-03-22T02:54:53;58.13;;;40.95;;
18407;SDS011;9330;52.210;21.174;2024-03-22T02:57:19;55.97;;;39.83;;
18407;SDS011;9330;52.210;21.174;2024-03-22T02:59:48;59.58;;;39.35;;
18407;SDS011;9330;52.210;21.174;2024-03-22T03:02:13;62.25;;;43.33;;
18407;SDS011;9330;52.210;21.174;2024-03-22T03:04:40;63.58;;;41.75;;
18407;SDS011;9330;52.210;21.174;2024-03-22T03:07:06;62.00;;;41.17;;
18407;SDS011;9330;52.210;21.174;2024-03-22T03:09:33;62.25;;;41.65;;
18407;SDS011;9330;52.210;21.174;2024-03-22T03:11:59;57.53;;;40.03;;
18407;SDS011;9330;52.210;21.174;2024-03-22T03:14:26;63.17;;;41.33;;
18407;SDS011;9330;52.210;21.174;2024-03-22T03:16:54;59.90;;;40.15;;
18407;SDS011;9330;52.210;21.174;2024-03-22T03:19:21;67.05;;;42.08;;
18407;SDS011;9330;52.210;21.174;2024-03-22T03:21:46;72.47;;;45.90;;
18407;SDS011;9330;52.210;21.174;2024-03-22T03:24:13;65.93;;;43.10;;
18407;SDS011;9330;52.210;21.174;2024-03-22T03:26:39;69.05;;;42.90;;
18407;SDS011;9330;52.210;21.174;2024-03-22T03:29:06;75.93;;;48.03;;
18407;SDS011;9330;52.210;21.174;2024-03-22T03:31:32;71.20;;;43.42;;
18407;SDS011;9330;52.210;21.174;2024-03-22T03:34:00;67.05;;;42.92;;
18407;SDS011;9330;52.210;21.174;2024-03-22T03:36:26;65.55;;;41.90;;
18407;SDS011;9330;52.210;21.174;2024-03-22T03:38:53;68.78;;;43.90;;
18407;SDS011;9330;52.210;21.174;2024-03-22T03:41:20;75.07;;;45.92;;
18407;SDS011;9330;52.210;21.174;2024-03-22T03:43:46;70.15;;;45.38;;
18407;SDS011;9330;52.210;21.174;2024-03-22T03:46:13;72.22;;;46.83;;
18407;SDS011;9330;52.210;21.174;2024-03-22T03:48:39;91.45;;;53.13;;
18407;SDS011;9330;52.210;21.174;2024-03-22T03:51:07;83.47;;;50.10;;
18407;SDS011;9330;52.210;21.174;2024-03-22T03:53:33;73.43;;;46.10;;
18407;SDS011;9330;52.210;21.174;2024-03-22T03:56:00;77.25;;;46.35;;
18407;SDS011;9330;52.210;21.174;2024-03-22T03:58:26;84.10;;;48.10;;
18407;SDS011;9330;52.210;21.174;2024-03-22T04:00:53;69.65;;;42.03;;
18407;SDS011;9330;52.210;21.174;2024-03-22T04:03:19;70.72;;;42.70;;
18407;SDS011;9330;52.210;21.174;2024-03-22T04:05:46;71.72;;;42.55;;
18407;SDS011;9330;52.210;21.174;2024-03-22T04:08:22;68.70;;;41.88;;
18407;SDS011;9330;52.210;21.174;2024-03-22T04:10:51;67.20;;;41.60;;
18407;SDS011;9330;52.210;21.174;2024-03-22T04:13:17;63.92;;;38.83;;
18407;SDS011;9330;52.210;21.174;2024-03-22T04:15:44;59.85;;;37.85;;
18407;SDS011;9330;52.210;21.174;2024-03-22T04:18:10;58.83;;;36.95;;
18407;SDS011;9330;52.210;21.174;2024-03-22T04:20:37;54.88;;;35.83;;
18407;SDS011;9330;52.210;21.174;2024-03-22T04:23:03;54.53;;;34.83;;
18407;SDS011;9330;52.210;21.174;2024-03-22T04:25:31;56.00;;;35.38;;
18407;SDS011;9330;52.210;21.174;2024-03-22T04:27:57;52.45;;;34.38;;
18407;SDS011;9330;52.210;21.174;2024-03-22T04:30:24;58.55;;;35.17;;
18407;SDS011;9330;52.210;21.174;2024-03-22T04:32:50;53.22;;;31.98;;
18407;SDS011;9330;52.210;21.174;2024-03-22T04:35:17;55.55;;;33.97;;
18407;SDS011;9330;52.210;21.174;2024-03-22T04:37:43;54.88;;;33.88;;
18407;SDS011;9330;52.210;21.174;2024-03-22T04:40:10;58.13;;;36.13;;
18407;SDS011;9330;52.210;21.174;2024-03-22T04:42:39;72.13;;;39.50;;
18407;SDS011;9330;52.210;21.174;2024-03-22T04:45:07;53.13;;;33.38;;
18407;SDS011;9330;52.210;21.174;2024-03-22T04:47:34;55.67;;;33.47;;
18407;SDS011;9330;52.210;21.174;2024-03-22T04:50:02;54.20;;;33.67;;
18407;SDS011;9330;52.210;21.174;2024-03-22T04:52:30;57.90;;;35.65;;
18407;SDS011;9330;52.210;21.174;2024-03-22T04:54:56;53.75;;;34.10;;
18407;SDS011;9330;52.210;21.174;2024-03-22T04:57:23;58.35;;;34.72;;
18407;SDS011;9330;52.210;21.174;2024-03-22T04:59:50;49.72;;;33.50;;
18407;SDS011;9330;52.210;21.174;2024-03-22T05:02:17;56.60;;;33.97;;
18407;SDS011;9330;52.210;21.174;2024-03-22T05:04:43;58.45;;;35.30;;
18407;SDS011;9330;52.210;21.174;2024-03-22T05:07:10;49.75;;;33.60;;
18407;SDS011;9330;52.210;21.174;2024-03-22T05:09:36;56.33;;;35.63;;
18407;SDS011;9330;52.210;21.174;2024-03-22T05:12:03;59.42;;;36.20;;
18407;SDS011;9330;52.210;21.174;2024-03-22T05:14:30;56.92;;;35.03;;
18407;SDS011;9330;52.210;21.174;2024-03-22T05:16:58;53.65;;;33.45;;
18407;SDS011;9330;52.210;21.174;2024-03-22T05:19:24;56.65;;;35.55;;
18407;SDS011;9330;52.210;21.174;2024-03-22T05:21:51;54.10;;;34.40;;
18407;SDS011;9330;52.210;21.174;2024-03-22T05:24:17;54.15;;;34.38;;
18407;SDS011;9330;52.210;21.174;2024-03-22T05:26:44;57.88;;;35.92;;
18407;SDS011;9330;52.210;21.174;2024-03-22T05:29:10;53.67;;;34.47;;
18407;SDS011;9330;52.210;21.174;2024-03-22T05:31:46;56.53;;;34.60;;
18407;SDS011;9330;52.210;21.174;2024-03-22T05:34:15;54.55;;;34.63;;
18407;SDS011;9330;52.210;21.174;2024-03-22T05:36:42;57.92;;;34.88;;
18407;SDS011;9330;52.210;21.174;2024-03-22T05:39:08;52.00;;;33.63;;
18407;SDS011;9330;52.210;21.174;2024-03-22T05:41:37;54.17;;;34.85;;
18407;SDS011;9330;52.210;21.174;2024-03-22T05:44:03;51.78;;;32.97;;
18407;SDS011;9330;52.210;21.174;2024-03-22T05:46:30;53.15;;;35.08;;
18407;SDS011;9330;52.210;21.174;2024-03-22T05:48:56;52.33;;;33.13;;
18407;SDS011;9330;52.210;21.174;2024-03-22T05:51:25;53.97;;;34.65;;
18407;SDS011;9330;52.210;21.174;2024-03-22T05:53:51;53.25;;;34.83;;
18407;SDS011;9330;52.210;21.174;2024-03-22T05:56:18;53.95;;;33.67;;
18407;SDS011;9330;52.210;21.174;2024-03-22T05:58:44;53.53;;;34.10;;
18407;SDS011;9330;52.210;21.174;2024-03-22T06:01:11;53.97;;;33.53;;
18407;SDS011;9330;52.210;21.174;2024-03-22T06:03:37;60.13;;;37.15;;
18407;SDS011;9330;52.210;21.174;2024-03-22T06:06:04;56.00;;;36.13;;
18407;SDS011;9330;52.210;21.174;2024-03-22T06:08:31;56.55;;;34.90;;
18407;SDS011;9330;52.210;21.174;2024-03-22T06:10:59;53.50;;;34.03;;
18407;SDS011;9330;52.210;21.174;2024-03-22T06:13:26;47.38;;;31.17;;
18407;SDS011;9330;52.210;21.174;2024-03-22T06:15:53;47.58;;;32.05;;
18407;SDS011;9330;52.210;21.174;2024-03-22T06:18:19;47.55;;;31.90;;
18407;SDS011;9330;52.210;21.174;2024-03-22T06:20:46;48.42;;;32.08;;
18407;SDS011;9330;52.210;21.174;2024-03-22T06:23:12;47.03;;;30.92;;
18407;SDS011;9330;52.210;21.174;2024-03-22T06:25:40;47.50;;;31.55;;
18407;SDS011;9330;52.210;21.174;2024-03-22T06:28:06;53.88;;;33.90;;
18407;SDS011;9330;52.210;21.174;2024-03-22T06:30:33;49.92;;;32.92;;
18407;SDS011;9330;52.210;21.174;2024-03-22T06:32:58;49.75;;;32.10;;
18407;SDS011;9330;52.210;21.174;2024-03-22T06:35:25;49.67;;;32.25;;
18407;SDS011;9330;52.210;21.174;2024-03-22T06:37:51;51.30;;;34.28;;
18407;SDS011;9330;52.210;21.174;2024-03-22T06:40:18;53.40;;;34.38;;
18407;SDS011;9330;52.210;21.174;2024-03-22T06:42:47;49.40;;;32.05;;
18407;SDS011;9330;52.210;21.174;2024-03-22T06:45:14;48.92;;;32.70;;
18407;SDS011;9330;52.210;21.174;2024-03-22T06:47:41;49.63;;;32.75;;
18407;SDS011;9330;52.210;21.174;2024-03-22T06:50:08;51.20;;;31.13;;
18407;SDS011;9330;52.210;21.174;2024-03-22T06:52:34;48.92;;;31.42;;
18407;SDS011;9330;52.210;21.174;2024-03-22T06:55:01;46.88;;;31.27;;
18407;SDS011;9330;52.210;21.174;2024-03-22T06:57:28;46.13;;;29.27;;
18407;SDS011;9330;52.210;21.174;2024-03-22T06:59:56;50.78;;;31.77;;
18407;SDS011;9330;52.210;21.174;2024-03-22T07:02:22;47.42;;;31.50;;
18407;SDS011;9330;52.210;21.174;2024-03-22T07:04:49;52.67;;;33.75;;
18407;SDS011;9330;52.210;21.174;2024-03-22T07:07:15;52.20;;;33.70;;
18407;SDS011;9330;52.210;21.174;2024-03-22T07:09:42;49.78;;;32.05;;
18407;SDS011;9330;52.210;21.174;2024-03-22T07:12:08;52.60;;;33.63;;
18407;SDS011;9330;52.210;21.174;2024-03-22T07:14:35;49.97;;;32.95;;
18407;SDS011;9330;52.210;21.174;2024-03-22T07:17:02;54.92;;;33.63;;
18407;SDS011;9330;52.210;21.174;2024-03-22T07:19:30;52.67;;;33.55;;
18407;SDS011;9330;52.210;21.174;2024-03-22T07:21:56;54.28;;;34.55;;
18407;SDS011;9330;52.210;21.174;2024-03-22T07:24:24;51.75;;;33.05;;
18407;SDS011;9330;52.210;21.174;2024-03-22T07:26:50;55.35;;;33.88;;
18407;SDS011;9330;52.210;21.174;2024-03-22T07:29:17;51.38;;;32.58;;
18407;SDS011;9330;52.210;21.174;2024-03-22T07:31:44;53.95;;;33.38;;
18407;SDS011;9330;52.210;21.174;2024-03-22T07:34:13;51.10;;;31.80;;
18407;SDS011;9330;52.210;21.174;2024-03-22T07:36:39;46.58;;;30.60;;
18407;SDS011;9330;52.210;21.174;2024-03-22T07:39:06;50.05;;;32.55;;
18407;SDS011;9330;52.210;21.174;2024-03-22T07:41:32;46.20;;;30.13;;
18407;SDS011;9330;52.210;21.174;2024-03-22T07:44:00;45.80;;;28.98;;
18407;SDS011;9330;52.210;21.174;2024-03-22T07:46:26;44.00;;;28.85;;
18407;SDS011;9330;52.210;21.174;2024-03-22T07:48:54;42.63;;;28.90;;
18407;SDS011;9330;52.210;21.174;2024-03-22T07:51:21;38.85;;;26.42;;
18407;SDS011;9330;52.210;21.174;2024-03-22T07:53:48;40.65;;;26.95;;
18407;SDS011;9330;52.210;21.174;2024-03-22T07:56:14;39.70;;;26.80;;
18407;SDS011;9330;52.210;21.174;2024-03-22T07:58:41;38.92;;;26.92;;
18407;SDS011;9330;52.210;21.174;2024-03-22T08:01:08;40.13;;;26.33;;
18407;SDS011;9330;52.210;21.174;2024-03-22T08:03:35;36.70;;;24.95;;
18407;SDS011;9330;52.210;21.174;2024-03-22T08:06:01;34.47;;;24.48;;
18407;SDS011;9330;52.210;21.174;2024-03-22T08:08:30;38.20;;;25.05;;
18407;SDS011;9330;52.210;21.174;2024-03-22T08:10:55;42.17;;;26.88;;
18407;SDS011;9330;52.210;21.174;2024-03-22T08:13:22;36.95;;;25.55;;
18407;SDS011;9330;52.210;21.174;2024-03-22T08:15:50;39.67;;;27.10;;
18407;SDS011;9330;52.210;21.174;2024-03-22T08:18:16;39.00;;;25.67;;
18407;SDS011;9330;52.210;21.174;2024-03-22T08:20:42;37.70;;;26.58;;
18407;SDS011;9330;52.210;21.174;2024-03-22T08:23:09;39.88;;;25.85;;
18407;SDS011;9330;52.210;21.174;2024-03-22T08:25:37;40.42;;;27.40;;
18407;SDS011;9330;52.210;21.174;2024-03-22T08:28:04;38.50;;;26.05;;
18407;SDS011;9330;52.210;21.174;2024-03-22T08:30:30;34.50;;;24.13;;
18407;SDS011;9330;52.210;21.174;2024-03-22T08:32:57;33.22;;;23.42;;
18407;SDS011;9330;52.210;21.174;2024-03-22T08:35:23;32.67;;;23.02;;
18407;SDS011;9330;52.210;21.174;2024-03-22T08:37:50;34.22;;;24.45;;
18407;SDS011;9330;52.210;21.174;2024-03-22T08:40:16;32.25;;;22.92;;
18407;SDS011;9330;52.210;21.174;2024-03-22T08:42:44;34.75;;;24.25;;
18407;SDS011;9330;52.210;21.174;2024-03-22T08:45:10;38.35;;;25.13;;
18407;SDS011;9330;52.210;21.174;2024-03-22T08:47:37;41.22;;;27.30;;
18407;SDS011;9330;52.210;21.174;2024-03-22T08:50:05;38.08;;;27.30;;
18407;SDS011;9330;52.210;21.174;2024-03-22T08:52:32;39.90;;;28.05;;
18407;SDS011;9330;52.210;21.174;2024-03-22T08:55:00;37.50;;;28.40;;
18407;SDS011;9330;52.210;21.174;2024-03-22T08:57:29;37.88;;;26.83;;
18407;SDS011;9330;52.210;21.174;2024-03-22T08:59:57;35.35;;;25.23;;
18407;SDS011;9330;52.210;21.174;2024-03-22T09:02:24;39.22;;;27.38;;
18407;SDS011;9330;52.210;21.174;2024-03-22T09:04:50;35.92;;;25.05;;
18407;SDS011;9330;52.210;21.174;2024-03-22T09:07:18;35.20;;;24.10;;
18407;SDS011;9330;52.210;21.174;2024-03-22T09:09:44;32.75;;;23.15;;
18407;SDS011;9330;52.210;21.174;2024-03-22T09:12:11;32.78;;;24.23;;
18407;SDS011;9330;52.210;21.174;2024-03-22T09:14:37;35.30;;;23.88;;
18407;SDS011;9330;52.210;21.174;2024-03-22T09:17:05;32.60;;;22.92;;
18407;SDS011;9330;52.210;21.174;2024-03-22T09:19:31;31.73;;;21.88;;
18407;SDS011;9330;52.210;21.174;2024-03-22T09:21:58;26.60;;;19.02;;
18407;SDS011;9330;52.210;21.174;2024-03-22T09:24:24;25.95;;;19.17;;
18407;SDS011;9330;52.210;21.174;2024-03-22T09:26:51;23.95;;;17.33;;
18407;SDS011;9330;52.210;21.174;2024-03-22T09:29:18;26.50;;;19.90;;
18407;SDS011;9330;52.210;21.174;2024-03-22T09:31:45;27.20;;;18.40;;
18407;SDS011;9330;52.210;21.174;2024-03-22T09:34:12;28.20;;;19.88;;
18407;SDS011;9330;52.210;21.174;2024-03-22T09:36:41;27.33;;;19.15;;
18407;SDS011;9330;52.210;21.174;2024-03-22T09:39:07;24.73;;;18.48;;
18407;SDS011;9330;52.210;21.174;2024-03-22T09:41:34;25.13;;;17.85;;
18407;SDS011;9330;52.210;21.174;2024-03-22T09:44:07;26.67;;;18.45;;
18407;SDS011;9330;52.210;21.174;2024-03-22T09:46:39;24.05;;;17.65;;
18407;SDS011;9330;52.210;21.174;2024-03-22T09:49:07;20.55;;;15.65;;
18407;SDS011;9330;52.210;21.174;2024-03-22T09:51:37;22.13;;;16.45;;
18407;SDS011;9330;52.210;21.174;2024-03-22T09:54:04;22.65;;;16.48;;
18407;SDS011;9330;52.210;21.174;2024-03-22T09:56:31;23.67;;;16.80;;
18407;SDS011;9330;52.210;21.174;2024-03-22T09:58:57;24.25;;;17.55;;
18407;SDS011;9330;52.210;21.174;2024-03-22T10:01:24;24.00;;;17.80;;
18407;SDS011;9330;52.210;21.174;2024-03-22T10:03:51;23.80;;;17.60;;
18407;SDS011;9330;52.210;21.174;2024-03-22T10:06:18;24.60;;;18.63;;
18407;SDS011;9330;52.210;21.174;2024-03-22T10:08:45;25.35;;;19.13;;
18407;SDS011;9330;52.210;21.174;2024-03-22T10:11:12;26.00;;;18.90;;
18407;SDS011;9330;52.210;21.174;2024-03-22T10:13:38;27.40;;;20.30;;
18407;SDS011;9330;52.210;21.174;2024-03-22T10:16:05;28.02;;;20.00;;
18407;SDS011;9330;52.210;21.174;2024-03-22T10:18:32;27.98;;;19.95;;
18407;SDS011;9330;52.210;21.174;2024-03-22T10:21:00;28.70;;;19.90;;
18407;SDS011;9330;52.210;21.174;2024-03-22T10:23:26;28.27;;;20.17;;
18407;SDS011;9330;52.210;21.174;2024-03-22T10:25:55;26.02;;;19.23;;
18407;SDS011;9330;52.210;21.174;2024-03-22T10:28:21;26.65;;;19.15;;
18407;SDS011;9330;52.210;21.174;2024-03-22T10:30:50;26.67;;;18.85;;
18407;SDS011;9330;52.210;21.174;2024-03-22T10:33:18;23.42;;;17.52;;
18407;SDS011;9330;52.210;21.174;2024-03-22T10:35:47;22.50;;;16.80;;
18407;SDS011;9330;52.210;21.174;2024-03-22T10:38:18;29.02;;;17.33;;
18407;SDS011;9330;52.210;21.174;2024-03-22T10:40:45;28.02;;;18.08;;
18407;SDS011;9330;52.210;21.174;2024-03-22T10:43:13;23.58;;;17.85;;
18407;SDS011;9330;52.210;21.174;2024-03-22T10:45:40;22.75;;;16.52;;
18407;SDS011;9330;52.210;21.174;2024-03-22T10:48:08;22.58;;;17.15;;
18407;SDS011;9330;52.210;21.174;2024-03-22T10:50:38;23.35;;;17.42;;
18407;SDS011;9330;52.210;21.174;2024-03-22T10:53:06;23.75;;;17.38;;
18407;SDS011;9330;52.210;21.174;2024-03-22T10:55:37;22.70;;;17.40;;
18407;SDS011;9330;52.210;21.174;2024-03-22T10:58:07;22.73;;;17.88;;
18407;SDS011;9330;52.210;21.174;2024-03-22T11:00:41;24.67;;;17.27;;
18407;SDS011;9330;52.210;21.174;2024-03-22T11:03:08;24.88;;;18.02;;
18407;SDS011;9330;52.210;21.174;2024-03-22T11:05:44;23.75;;;17.05;;
18407;SDS011;9330;52.210;21.174;2024-03-22T11:08:11;24.33;;;18.48;;
18407;SDS011;9330;52.210;21.174;2024-03-22T11:10:38;22.60;;;17.40;;
18407;SDS011;9330;52.210;21.174;2024-03-22T11:13:05;24.20;;;18.13;;
18407;SDS011;9330;52.210;21.174;2024-03-22T11:15:33;23.67;;;18.33;;
18407;SDS011;9330;52.210;21.174;2024-03-22T11:18:01;23.10;;;18.08;;
18407;SDS011;9330;52.210;21.174;2024-03-22T11:20:28;22.90;;;17.05;;
18407;SDS011;9330;52.210;21.174;2024-03-22T11:22:55;26.10;;;19.27;;
18407;SDS011;9330;52.210;21.174;2024-03-22T11:25:22;25.73;;;18.50;;
18407;SDS011;9330;52.210;21.174;2024-03-22T11:27:48;22.38;;;17.35;;
18407;SDS011;9330;52.210;21.174;2024-03-22T11:30:15;26.38;;;18.83;;
18407;SDS011;9330;52.210;21.174;2024-03-22T11:32:41;25.10;;;18.40;;
18407;SDS011;9330;52.210;21.174;2024-03-22T11:35:11;23.83;;;18.88;;
18407;SDS011;9330;52.210;21.174;2024-03-22T11:37:38;23.60;;;18.50;;
18407;SDS011;9330;52.210;21.174;2024-03-22T11:40:06;23.60;;;18.30;;
18407;SDS011;9330;52.210;21.174;2024-03-22T11:42:35;23.17;;;17.73;;
18407;SDS011;9330;52.210;21.174;2024-03-22T11:45:06;20.85;;;17.27;;
18407;SDS011;9330;52.210;21.174;2024-03-22T11:47:33;21.30;;;16.27;;
18407;SDS011;9330;52.210;21.174;2024-03-22T11:50:01;21.55;;;17.02;;
18407;SDS011;9330;52.210;21.174;2024-03-22T11:52:29;21.10;;;17.13;;
18407;SDS011;9330;52.210;21.174;2024-03-22T11:54:56;20.50;;;16.23;;
18407;SDS011;9330;52.210;21.174;2024-03-22T11:57:22;20.30;;;15.32;;
18407;SDS011;9330;52.210;21.174;2024-03-22T11:59:50;19.67;;;15.65;;
18407;SDS011;9330;52.210;21.174;2024-03-22T12:02:16;24.00;;;17.77;;
18407;SDS011;9330;52.210;21.174;2024-03-22T12:04:45;20.35;;;16.40;;
18407;SDS011;9330;52.210;21.174;2024-03-22T12:07:12;20.92;;;15.85;;
18407;SDS011;9330;52.210;21.174;2024-03-22T12:09:42;20.30;;;16.35;;
18407;SDS011;9330;52.210;21.174;2024-03-22T12:12:09;21.45;;;15.77;;
18407;SDS011;9330;52.210;21.174;2024-03-22T12:14:36;23.88;;;17.83;;
18407;SDS011;9330;52.210;21.174;2024-03-22T12:17:03;20.08;;;15.02;;
18407;SDS011;9330;52.210;21.174;2024-03-22T12:19:33;18.73;;;14.05;;
18407;SDS011;9330;52.210;21.174;2024-03-22T12:21:59;18.35;;;13.63;;
18407;SDS011;9330;52.210;21.174;2024-03-22T12:24:27;20.27;;;14.98;;
18407;SDS011;9330;52.210;21.174;2024-03-22T12:26:54;18.35;;;13.95;;
18407;SDS011;9330;52.210;21.174;2024-03-22T12:29:21;17.80;;;14.27;;
18407;SDS011;9330;52.210;21.174;2024-03-22T12:31:47;19.55;;;14.23;;
18407;SDS011;9330;52.210;21.174;2024-03-22T12:34:17;16.92;;;12.93;;
18407;SDS011;9330;52.210;21.174;2024-03-22T12:38:06;16.80;;;13.43;;
18407;SDS011;9330;52.210;21.174;2024-03-22T12:40:35;15.98;;;12.55;;
18407;SDS011;9330;52.210;21.174;2024-03-22T12:43:03;17.77;;;12.27;;
18407;SDS011;9330;52.210;21.174;2024-03-22T12:45:30;15.30;;;12.15;;
18407;SDS011;9330;52.210;21.174;2024-03-22T12:47:57;16.38;;;11.90;;
18407;SDS011;9330;52.210;21.174;2024-03-22T12:50:24;17.15;;;13.45;;
18407;SDS011;9330;52.210;21.174;2024-03-22T12:52:51;17.35;;;12.80;;
18407;SDS011;9330;52.210;21.174;2024-03-22T12:55:18;17.23;;;12.90;;
18407;SDS011;9330;52.210;21.174;2024-03-22T12:57:44;15.95;;;12.75;;
18407;SDS011;9330;52.210;21.174;2024-03-22T13:00:14;15.32;;;12.93;;
18407;SDS011;9330;52.210;21.174;2024-03-22T13:02:43;18.63;;;13.10;;
18407;SDS011;9330;52.210;21.174;2024-03-22T13:05:10;15.55;;;12.07;;
18407;SDS011;9330;52.210;21.174;2024-03-22T13:07:36;15.60;;;11.90;;
18407;SDS011;9330;52.210;21.174;2024-03-22T13:10:04;15.43;;;12.52;;
18407;SDS011;9330;52.210;21.174;2024-03-22T13:12:30;14.65;;;11.90;;
18407;SDS011;9330;52.210;21.174;2024-03-22T13:14:59;14.77;;;11.55;;
18407;SDS011;9330;52.210;21.174;2024-03-22T13:17:27;14.02;;;10.27;;
18407;SDS011;9330;52.210;21.174;2024-03-22T13:19:54;13.85;;;10.95;;
18407;SDS011;9330;52.210;21.174;2024-03-22T13:22:20;15.13;;;11.30;;
18407;SDS011;9330;52.210;21.174;2024-03-22T13:24:47;13.23;;;9.90;;
18407;SDS011;9330;52.210;21.174;2024-03-22T13:27:15;13.75;;;10.82;;
18407;SDS011;9330;52.210;21.174;2024-03-22T13:29:42;16.00;;;10.20;;
18407;SDS011;9330;52.210;21.174;2024-03-22T13:32:08;13.10;;;10.88;;
18407;SDS011;9330;52.210;21.174;2024-03-22T13:34:37;14.00;;;10.50;;
18407;SDS011;9330;52.210;21.174;2024-03-22T13:37:03;11.68;;;9.88;;
18407;SDS011;9330;52.210;21.174;2024-03-22T13:39:31;12.68;;;9.82;;
18407;SDS011;9330;52.210;21.174;2024-03-22T13:41:57;17.45;;;11.02;;
18407;SDS011;9330;52.210;21.174;2024-03-22T13:44:24;15.23;;;11.15;;
18407;SDS011;9330;52.210;21.174;2024-03-22T13:46:50;14.50;;;11.07;;
18407;SDS011;9330;52.210;21.174;2024-03-22T13:49:18;17.17;;;11.98;;
18407;SDS011;9330;52.210;21.174;2024-03-22T13:51:47;15.02;;;11.55;;
18407;SDS011;9330;52.210;21.174;2024-03-22T13:54:14;15.00;;;11.02;;
18407;SDS011;9330;52.210;21.174;2024-03-22T13:56:40;15.07;;;11.90;;
18407;SDS011;9330;52.210;21.174;2024-03-22T13:59:08;13.65;;;10.88;;
18407;SDS011;9330;52.210;21.174;2024-03-22T14:01:34;14.65;;;10.95;;
18407;SDS011;9330;52.210;21.174;2024-03-22T14:04:01;12.98;;;10.82;;
18407;SDS011;9330;52.210;21.174;2024-03-22T14:06:28;17.25;;;11.82;;
18407;SDS011;9330;52.210;21.174;2024-03-22T14:08:58;14.95;;;11.02;;
18407;SDS011;9330;52.210;21.174;2024-03-22T14:11:26;15.98;;;12.23;;
18407;SDS011;9330;52.210;21.174;2024-03-22T14:13:53;14.15;;;11.65;;
18407;SDS011;9330;52.210;21.174;2024-03-22T14:16:19;15.25;;;12.07;;
18407;SDS011;9330;52.210;21.174;2024-03-22T14:18:46;14.07;;;11.00;;
18407;SDS011;9330;52.210;21.174;2024-03-22T14:21:13;15.20;;;11.68;;